sensor_id;sensor_type;location;lat;lon;timestamp;temperature;humidity
76120;DHT22;64852;48.092;-1.640;2023-05-07T00:01:32;16.30;99.90
76120;DHT22;64852;48.092;-1.640;2023-05-07T00:03:57;16.30;99.90
76120;DHT22;64852;48.092;-1.640;2023-05-07T00:06:23;16.30;99.90
76120;DHT22;64852;48.092;-1.640;2023-05-07T00:08:49;16.30;99.90
76120;DHT22;64852;48.092;-1.640;2023-05-07T00:11:14;16.30;99.90
76120;DHT22;64852;48.092;-1.640;2023-05-07T00:13:40;16.30;99.90
76120;DHT22;64852;48.092;-1.640;2023-05-07T00:16:05;16.20;99.90
76120;DHT22;64852;48.092;-1.640;2023-05-07T00:18:31;16.20;99.90
76120;DHT22;64852;48.092;-1.640;2023-05-07T00:20:56;16.20;99.90
76120;DHT22;64852;48.092;-1.640;2023-05-07T00:23:22;16.20;99.90
76120;DHT22;64852;48.092;-1.640;2023-05-07T00:25:47;16.10;99.90
76120;DHT22;64852;48.092;-1.640;2023-05-07T00:28:13;16.10;99.90
76120;DHT22;64852;48.092;-1.640;2023-05-07T00:30:38;16.10;99.90
76120;DHT22;64852;48.092;-1.640;2023-05-07T00:33:04;16.10;99.90
76120;DHT22;64852;48.092;-1.640;2023-05-07T00:35:29;16.10;99.90
76120;DHT22;64852;48.092;-1.640;2023-05-07T00:37:55;16.10;99.90
76120;DHT22;64852;48.092;-1.640;2023-05-07T00:40:21;16.20;99.90
76120;DHT22;64852;48.092;-1.640;2023-05-07T00:42:46;16.10;99.90
76120;DHT22;64852;48.092;-1.640;2023-05-07T00:45:14;16.00;99.90
76120;DHT22;64852;48.092;-1.640;2023-05-07T00:47:40;16.10;99.90
76120;DHT22;64852;48.092;-1.640;2023-05-07T00:50:06;16.10;99.90
76120;DHT22;64852;48.092;-1.640;2023-05-07T00:52:32;16.10;99.90
76120;DHT22;64852;48.092;-1.640;2023-05-07T00:54:58;16.10;99.90
76120;DHT22;64852;48.092;-1.640;2023-05-07T00:57:25;16.10;99.90
76120;DHT22;64852;48.092;-1.640;2023-05-07T00:59:51;16.10;99.90
76120;DHT22;64852;48.092;-1.640;2023-05-07T01:02:17;16.00;99.90
76120;DHT22;64852;48.092;-1.640;2023-05-07T01:04:42;16.10;99.90
76120;DHT22;64852;48.092;-1.640;2023-05-07T01:07:08;16.00;99.90
76120;DHT22;64852;48.092;-1.640;2023-05-07T01:09:33;16.00;99.90
76120;DHT22;64852;48.092;-1.640;2023-05-07T01:12:00;16.00;99.90
76120;DHT22;64852;48.092;-1.640;2023-05-07T01:14:26;15.90;99.90
76120;DHT22;64852;48.092;-1.640;2023-05-07T01:16:52;15.90;99.90
76120;DHT22;64852;48.092;-1.640;2023-05-07T01:19:18;15.90;99.90
76120;DHT22;64852;48.092;-1.640;2023-05-07T01:21:45;15.90;99.90
76120;DHT22;64852;48.092;-1.640;2023-05-07T01:24:11;15.80;99.90
76120;DHT22;64852;48.092;-1.640;2023-05-07T01:26:37;15.90;99.90
76120;DHT22;64852;48.092;-1.640;2023-05-07T01:29:03;15.80;99.90
76120;DHT22;64852;48.092;-1.640;2023-05-07T01:31:28;15.80;99.90
76120;DHT22;64852;48.092;-1.640;2023-05-07T01:33:54;15.80;99.90
76120;DHT22;64852;48.092;-1.640;2023-05-07T01:36:20;15.80;99.90
76120;DHT22;64852;48.092;-1.640;2023-05-07T01:38:48;15.80;99.90
76120;DHT22;64852;48.092;-1.640;2023-05-07T01:41:13;15.90;99.90
76120;DHT22;64852;48.092;-1.640;2023-05-07T01:43:40;15.90;99.90
76120;DHT22;64852;48.092;-1.640;2023-05-07T01:46:06;15.90;99.90
76120;DHT22;64852;48.092;-1.640;2023-05-07T01:48:32;15.80;99.90
76120;DHT22;64852;48.092;-1.640;2023-05-07T01:50:58;15.80;99.90
76120;DHT22;64852;48.092;-1.640;2023-05-07T01:53:26;15.70;99.90
76120;DHT22;64852;48.092;-1.640;2023-05-07T01:55:52;15.80;99.90
76120;DHT22;64852;48.092;-1.640;2023-05-07T01:58:17;15.70;99.90
76120;DHT22;64852;48.092;-1.640;2023-05-07T02:00:43;15.70;99.90
76120;DHT22;64852;48.092;-1.640;2023-05-07T02:03:08;15.60;99.90
76120;DHT22;64852;48.092;-1.640;2023-05-07T02:05:34;15.60;99.90
76120;DHT22;64852;48.092;-1.640;2023-05-07T02:08:00;15.60;99.90
76120;DHT22;64852;48.092;-1.640;2023-05-07T02:10:25;15.60;99.90
76120;DHT22;64852;48.092;-1.640;2023-05-07T02:12:51;15.60;99.90
76120;DHT22;64852;48.092;-1.640;2023-05-07T02:15:16;15.60;99.90
76120;DHT22;64852;48.092;-1.640;2023-05-07T02:17:58;15.60;99.90
76120;DHT22;64852;48.092;-1.640;2023-05-07T02:20:24;15.60;99.90
76120;DHT22;64852;48.092;-1.640;2023-05-07T02:22:50;15.60;99.90
76120;DHT22;64852;48.092;-1.640;2023-05-07T02:25:15;15.60;99.90
76120;DHT22;64852;48.092;-1.640;2023-05-07T02:27:40;15.60;99.90
76120;DHT22;64852;48.092;-1.640;2023-05-07T02:30:06;15.60;99.90
76120;DHT22;64852;48.092;-1.640;2023-05-07T02:32:32;15.60;99.90
76120;DHT22;64852;48.092;-1.640;2023-05-07T02:34:57;15.50;99.90
76120;DHT22;64852;48.092;-1.640;2023-05-07T02:37:23;15.40;99.90
76120;DHT22;64852;48.092;-1.640;2023-05-07T02:39:48;15.40;99.90
76120;DHT22;64852;48.092;-1.640;2023-05-07T02:42:14;15.40;99.90
76120;DHT22;64852;48.092;-1.640;2023-05-07T02:44:39;15.40;99.90
76120;DHT22;64852;48.092;-1.640;2023-05-07T02:47:05;15.40;99.90
76120;DHT22;64852;48.092;-1.640;2023-05-07T02:49:33;15.40;99.90
76120;DHT22;64852;48.092;-1.640;2023-05-07T02:51:59;15.40;99.90
76120;DHT22;64852;48.092;-1.640;2023-05-07T02:54:24;15.50;99.90
76120;DHT22;64852;48.092;-1.640;2023-05-07T02:56:50;15.50;99.90
76120;DHT22;64852;48.092;-1.640;2023-05-07T02:59:15;15.60;99.90
76120;DHT22;64852;48.092;-1.640;2023-05-07T03:01:41;15.60;99.90
76120;DHT22;64852;48.092;-1.640;2023-05-07T03:04:09;15.60;99.90
76120;DHT22;64852;48.092;-1.640;2023-05-07T03:06:35;15.60;99.90
76120;DHT22;64852;48.092;-1.640;2023-05-07T03:09:00;15.60;99.90
76120;DHT22;64852;48.092;-1.640;2023-05-07T03:11:26;15.70;99.90
76120;DHT22;64852;48.092;-1.640;2023-05-07T03:13:51;15.70;99.90
76120;DHT22;64852;48.092;-1.640;2023-05-07T03:16:17;15.70;99.90
76120;DHT22;64852;48.092;-1.640;2023-05-07T03:18:42;15.70;99.90
76120;DHT22;64852;48.092;-1.640;2023-05-07T03:21:08;15.70;99.90
76120;DHT22;64852;48.092;-1.640;2023-05-07T03:23:34;15.60;99.90
76120;DHT22;64852;48.092;-1.640;2023-05-07T03:25:59;15.60;99.90
76120;DHT22;64852;48.092;-1.640;2023-05-07T03:28:25;15.60;99.90
76120;DHT22;64852;48.092;-1.640;2023-05-07T03:30:50;15.50;99.90
76120;DHT22;64852;48.092;-1.640;2023-05-07T03:33:16;15.50;99.90
76120;DHT22;64852;48.092;-1.640;2023-05-07T03:35:41;15.50;99.90
76120;DHT22;64852;48.092;-1.640;2023-05-07T03:38:07;15.50;99.90
76120;DHT22;64852;48.092;-1.640;2023-05-07T03:40:32;15.60;99.90
76120;DHT22;64852;48.092;-1.640;2023-05-07T03:42:59;15.50;99.90
76120;DHT22;64852;48.092;-1.640;2023-05-07T03:45:24;15.50;99.90
76120;DHT22;64852;48.092;-1.640;2023-05-07T03:47:50;15.60;99.90
76120;DHT22;64852;48.092;-1.640;2023-05-07T03:50:15;15.60;99.90
76120;DHT22;64852;48.092;-1.640;2023-05-07T03:52:41;15.60;99.90
76120;DHT22;64852;48.092;-1.640;2023-05-07T03:55:07;15.60;99.90
76120;DHT22;64852;48.092;-1.640;2023-05-07T03:57:32;15.60;99.90
76120;DHT22;64852;48.092;-1.640;2023-05-07T03:59:58;15.60;99.90
76120;DHT22;64852;48.092;-1.640;2023-05-07T04:02:23;15.60;99.90
76120;DHT22;64852;48.092;-1.640;2023-05-07T04:04:49;15.50;99.90
76120;DHT22;64852;48.092;-1.640;2023-05-07T04:07:15;15.60;99.90
76120;DHT22;64852;48.092;-1.640;2023-05-07T04:09:40;15.50;99.90
76120;DHT22;64852;48.092;-1.640;2023-05-07T04:12:06;15.50;99.90
76120;DHT22;64852;48.092;-1.640;2023-05-07T04:14:31;15.40;99.90
76120;DHT22;64852;48.092;-1.640;2023-05-07T04:16:58;15.40;99.90
76120;DHT22;64852;48.092;-1.640;2023-05-07T04:19:24;15.50;99.90
76120;DHT22;64852;48.092;-1.640;2023-05-07T04:21:49;15.50;99.90
76120;DHT22;64852;48.092;-1.640;2023-05-07T04:24:15;15.40;99.90
76120;DHT22;64852;48.092;-1.640;2023-05-07T04:26:40;15.40;99.90
76120;DHT22;64852;48.092;-1.640;2023-05-07T04:29:05;15.60;99.90
76120;DHT22;64852;48.092;-1.640;2023-05-07T04:31:31;15.50;99.90
76120;DHT22;64852;48.092;-1.640;2023-05-07T04:33:57;15.50;99.90
76120;DHT22;64852;48.092;-1.640;2023-05-07T04:36:22;15.50;99.90
76120;DHT22;64852;48.092;-1.640;2023-05-07T04:38:48;15.50;99.90
76120;DHT22;64852;48.092;-1.640;2023-05-07T04:41:13;15.50;99.90
76120;DHT22;64852;48.092;-1.640;2023-05-07T04:43:39;15.50;99.90
76120;DHT22;64852;48.092;-1.640;2023-05-07T04:46:05;15.40;99.90
76120;DHT22;64852;48.092;-1.640;2023-05-07T04:48:30;15.40;99.90
76120;DHT22;64852;48.092;-1.640;2023-05-07T04:50:56;15.40;99.90
76120;DHT22;64852;48.092;-1.640;2023-05-07T04:53:21;15.50;99.90
76120;DHT22;64852;48.092;-1.640;2023-05-07T04:55:47;15.50;99.90
76120;DHT22;64852;48.092;-1.640;2023-05-07T04:58:13;15.50;99.90
76120;DHT22;64852;48.092;-1.640;2023-05-07T05:00:38;15.50;99.90
76120;DHT22;64852;48.092;-1.640;2023-05-07T05:03:04;15.60;99.90
76120;DHT22;64852;48.092;-1.640;2023-05-07T05:05:30;15.60;99.90
76120;DHT22;64852;48.092;-1.640;2023-05-07T05:07:56;15.50;99.90
76120;DHT22;64852;48.092;-1.640;2023-05-07T05:10:21;15.50;99.90
76120;DHT22;64852;48.092;-1.640;2023-05-07T05:12:47;15.50;99.90
76120;DHT22;64852;48.092;-1.640;2023-05-07T05:15:13;15.60;99.90
76120;DHT22;64852;48.092;-1.640;2023-05-07T05:17:38;15.60;99.90
76120;DHT22;64852;48.092;-1.640;2023-05-07T05:20:04;15.60;99.90
76120;DHT22;64852;48.092;-1.640;2023-05-07T05:22:31;15.60;99.90
76120;DHT22;64852;48.092;-1.640;2023-05-07T05:24:56;15.60;99.90
76120;DHT22;64852;48.092;-1.640;2023-05-07T05:27:22;15.60;99.90
76120;DHT22;64852;48.092;-1.640;2023-05-07T05:29:48;15.60;99.90
76120;DHT22;64852;48.092;-1.640;2023-05-07T05:32:13;15.70;99.90
76120;DHT22;64852;48.092;-1.640;2023-05-07T05:34:39;15.70;99.90
76120;DHT22;64852;48.092;-1.640;2023-05-07T05:37:04;15.70;99.90
76120;DHT22;64852;48.092;-1.640;2023-05-07T05:39:30;15.60;99.90
76120;DHT22;64852;48.092;-1.640;2023-05-07T05:41:55;15.70;99.90
76120;DHT22;64852;48.092;-1.640;2023-05-07T05:44:21;15.70;99.90
76120;DHT22;64852;48.092;-1.640;2023-05-07T05:46:47;15.70;99.90
76120;DHT22;64852;48.092;-1.640;2023-05-07T05:49:12;15.60;99.90
76120;DHT22;64852;48.092;-1.640;2023-05-07T05:51:38;15.70;99.90
76120;DHT22;64852;48.092;-1.640;2023-05-07T05:54:03;15.60;99.90
76120;DHT22;64852;48.092;-1.640;2023-05-07T05:56:29;15.60;99.90
76120;DHT22;64852;48.092;-1.640;2023-05-07T05:58:55;15.60;99.90
76120;DHT22;64852;48.092;-1.640;2023-05-07T06:01:20;15.60;99.90
76120;DHT22;64852;48.092;-1.640;2023-05-07T06:03:46;15.50;99.90
76120;DHT22;64852;48.092;-1.640;2023-05-07T06:06:11;15.50;99.90
76120;DHT22;64852;48.092;-1.640;2023-05-07T06:08:37;15.60;99.90
76120;DHT22;64852;48.092;-1.640;2023-05-07T06:11:03;15.60;99.90
76120;DHT22;64852;48.092;-1.640;2023-05-07T06:13:28;15.70;99.90
76120;DHT22;64852;48.092;-1.640;2023-05-07T06:15:54;15.70;99.90
76120;DHT22;64852;48.092;-1.640;2023-05-07T06:18:19;15.70;99.90
76120;DHT22;64852;48.092;-1.640;2023-05-07T06:20:45;15.80;99.90
76120;DHT22;64852;48.092;-1.640;2023-05-07T06:23:10;15.80;99.90
76120;DHT22;64852;48.092;-1.640;2023-05-07T06:25:36;15.90;99.90
76120;DHT22;64852;48.092;-1.640;2023-05-07T06:28:01;15.90;99.90
76120;DHT22;64852;48.092;-1.640;2023-05-07T06:30:27;15.90;99.90
76120;DHT22;64852;48.092;-1.640;2023-05-07T06:32:52;15.90;99.90
76120;DHT22;64852;48.092;-1.640;2023-05-07T06:35:17;16.00;99.90
76120;DHT22;64852;48.092;-1.640;2023-05-07T06:37:43;16.10;99.90
76120;DHT22;64852;48.092;-1.640;2023-05-07T06:40:09;16.10;99.90
76120;DHT22;64852;48.092;-1.640;2023-05-07T06:42:37;16.10;99.90
76120;DHT22;64852;48.092;-1.640;2023-05-07T06:45:03;16.20;99.90
76120;DHT22;64852;48.092;-1.640;2023-05-07T06:47:29;16.30;99.90
76120;DHT22;64852;48.092;-1.640;2023-05-07T06:49:55;16.40;99.90
76120;DHT22;64852;48.092;-1.640;2023-05-07T06:52:20;16.50;99.90
76120;DHT22;64852;48.092;-1.640;2023-05-07T06:54:46;16.50;99.90
76120;DHT22;64852;48.092;-1.640;2023-05-07T06:57:11;16.60;99.90
76120;DHT22;64852;48.092;-1.640;2023-05-07T06:59:37;16.60;99.90
76120;DHT22;64852;48.092;-1.640;2023-05-07T07:02:02;16.60;99.90
76120;DHT22;64852;48.092;-1.640;2023-05-07T07:04:28;16.60;99.90
76120;DHT22;64852;48.092;-1.640;2023-05-07T07:06:53;16.60;99.90
76120;DHT22;64852;48.092;-1.640;2023-05-07T07:09:19;16.60;99.90
76120;DHT22;64852;48.092;-1.640;2023-05-07T07:11:45;16.60;99.90
76120;DHT22;64852;48.092;-1.640;2023-05-07T07:14:10;16.70;99.90
76120;DHT22;64852;48.092;-1.640;2023-05-07T07:16:36;16.70;99.90
76120;DHT22;64852;48.092;-1.640;2023-05-07T07:19:01;16.80;99.90
76120;DHT22;64852;48.092;-1.640;2023-05-07T07:21:27;16.80;99.90
76120;DHT22;64852;48.092;-1.640;2023-05-07T07:23:52;16.90;99.90
76120;DHT22;64852;48.092;-1.640;2023-05-07T07:26:17;16.80;99.90
76120;DHT22;64852;48.092;-1.640;2023-05-07T07:28:43;16.80;99.90
76120;DHT22;64852;48.092;-1.640;2023-05-07T07:31:09;16.70;99.90
76120;DHT22;64852;48.092;-1.640;2023-05-07T07:33:35;16.70;99.90
76120;DHT22;64852;48.092;-1.640;2023-05-07T07:36:00;16.70;99.90
76120;DHT22;64852;48.092;-1.640;2023-05-07T07:38:26;16.70;99.90
76120;DHT22;64852;48.092;-1.640;2023-05-07T07:40:51;16.70;99.90
76120;DHT22;64852;48.092;-1.640;2023-05-07T07:43:17;16.70;99.90
76120;DHT22;64852;48.092;-1.640;2023-05-07T07:45:42;16.70;99.90
76120;DHT22;64852;48.092;-1.640;2023-05-07T07:48:08;16.70;99.90
76120;DHT22;64852;48.092;-1.640;2023-05-07T07:50:33;16.70;99.90
76120;DHT22;64852;48.092;-1.640;2023-05-07T07:52:59;16.70;99.90
76120;DHT22;64852;48.092;-1.640;2023-05-07T07:55:25;16.70;99.90
76120;DHT22;64852;48.092;-1.640;2023-05-07T07:57:52;16.70;99.90
76120;DHT22;64852;48.092;-1.640;2023-05-07T08:00:18;16.70;99.90
76120;DHT22;64852;48.092;-1.640;2023-05-07T08:02:43;16.60;99.90
76120;DHT22;64852;48.092;-1.640;2023-05-07T08:05:09;16.60;99.90
76120;DHT22;64852;48.092;-1.640;2023-05-07T08:07:34;16.60;99.90
76120;DHT22;64852;48.092;-1.640;2023-05-07T08:10:00;16.60;99.90
76120;DHT22;64852;48.092;-1.640;2023-05-07T08:12:26;16.60;99.90
76120;DHT22;64852;48.092;-1.640;2023-05-07T08:14:51;16.70;99.90
76120;DHT22;64852;48.092;-1.640;2023-05-07T08:17:17;16.70;99.90
76120;DHT22;64852;48.092;-1.640;2023-05-07T08:19:42;16.90;99.90
76120;DHT22;64852;48.092;-1.640;2023-05-07T08:22:09;16.90;99.90
76120;DHT22;64852;48.092;-1.640;2023-05-07T08:24:34;17.00;99.90
76120;DHT22;64852;48.092;-1.640;2023-05-07T08:27:01;17.10;99.90
76120;DHT22;64852;48.092;-1.640;2023-05-07T08:29:26;17.20;99.90
76120;DHT22;64852;48.092;-1.640;2023-05-07T08:31:51;17.20;99.90
76120;DHT22;64852;48.092;-1.640;2023-05-07T08:34:17;17.10;99.90
76120;DHT22;64852;48.092;-1.640;2023-05-07T08:36:43;17.10;99.90
76120;DHT22;64852;48.092;-1.640;2023-05-07T08:39:09;17.10;99.90
76120;DHT22;64852;48.092;-1.640;2023-05-07T08:41:34;17.10;99.90
76120;DHT22;64852;48.092;-1.640;2023-05-07T08:44:00;17.00;99.90
76120;DHT22;64852;48.092;-1.640;2023-05-07T08:46:29;17.10;99.90
76120;DHT22;64852;48.092;-1.640;2023-05-07T08:48:56;17.10;99.90
76120;DHT22;64852;48.092;-1.640;2023-05-07T08:51:21;17.20;99.90
76120;DHT22;64852;48.092;-1.640;2023-05-07T08:53:47;17.20;99.90
76120;DHT22;64852;48.092;-1.640;2023-05-07T08:56:14;17.30;99.90
76120;DHT22;64852;48.092;-1.640;2023-05-07T08:58:41;17.30;99.90
76120;DHT22;64852;48.092;-1.640;2023-05-07T09:01:13;17.40;99.90
76120;DHT22;64852;48.092;-1.640;2023-05-07T09:03:39;17.50;99.90
76120;DHT22;64852;48.092;-1.640;2023-05-07T09:06:05;17.60;99.90
76120;DHT22;64852;48.092;-1.640;2023-05-07T09:08:31;17.60;99.90
76120;DHT22;64852;48.092;-1.640;2023-05-07T09:10:57;17.70;99.90
76120;DHT22;64852;48.092;-1.640;2023-05-07T09:13:23;17.80;99.90
76120;DHT22;64852;48.092;-1.640;2023-05-07T09:15:48;17.90;99.90
76120;DHT22;64852;48.092;-1.640;2023-05-07T09:18:14;18.00;99.90
76120;DHT22;64852;48.092;-1.640;2023-05-07T09:20:40;18.00;99.90
76120;DHT22;64852;48.092;-1.640;2023-05-07T09:23:06;18.20;99.90
76120;DHT22;64852;48.092;-1.640;2023-05-07T09:25:33;18.20;99.90
76120;DHT22;64852;48.092;-1.640;2023-05-07T09:27:59;18.20;99.90
76120;DHT22;64852;48.092;-1.640;2023-05-07T09:30:31;18.20;99.90
76120;DHT22;64852;48.092;-1.640;2023-05-07T09:33:00;18.30;99.90
76120;DHT22;64852;48.092;-1.640;2023-05-07T09:35:26;18.30;99.90
76120;DHT22;64852;48.092;-1.640;2023-05-07T09:37:55;18.30;99.90
76120;DHT22;64852;48.092;-1.640;2023-05-07T09:40:22;18.30;99.90
76120;DHT22;64852;48.092;-1.640;2023-05-07T09:42:48;18.40;99.90
76120;DHT22;64852;48.092;-1.640;2023-05-07T09:45:15;18.50;99.90
76120;DHT22;64852;48.092;-1.640;2023-05-07T09:47:41;18.60;99.90
76120;DHT22;64852;48.092;-1.640;2023-05-07T09:50:07;18.70;99.90
76120;DHT22;64852;48.092;-1.640;2023-05-07T09:52:33;18.70;99.90
76120;DHT22;64852;48.092;-1.640;2023-05-07T09:55:02;18.60;99.90
76120;DHT22;64852;48.092;-1.640;2023-05-07T09:57:28;18.60;99.90
76120;DHT22;64852;48.092;-1.640;2023-05-07T09:59:55;18.60;99.90
76120;DHT22;64852;48.092;-1.640;2023-05-07T10:02:21;18.60;99.90
76120;DHT22;64852;48.092;-1.640;2023-05-07T10:04:48;18.50;99.90
76120;DHT22;64852;48.092;-1.640;2023-05-07T10:07:14;18.50;99.90
76120;DHT22;64852;48.092;-1.640;2023-05-07T10:09:41;18.40;99.90
76120;DHT22;64852;48.092;-1.640;2023-05-07T10:12:09;18.50;99.90
76120;DHT22;64852;48.092;-1.640;2023-05-07T10:14:34;18.60;99.90
76120;DHT22;64852;48.092;-1.640;2023-05-07T10:17:00;18.70;99.90
76120;DHT22;64852;48.092;-1.640;2023-05-07T10:19:27;18.70;99.90
76120;DHT22;64852;48.092;-1.640;2023-05-07T10:21:56;18.60;99.90
76120;DHT22;64852;48.092;-1.640;2023-05-07T10:24:26;18.60;99.90
76120;DHT22;64852;48.092;-1.640;2023-05-07T10:26:52;18.60;99.90
76120;DHT22;64852;48.092;-1.640;2023-05-07T10:31:58;18.40;99.90
76120;DHT22;64852;48.092;-1.640;2023-05-07T10:34:29;18.40;99.90
76120;DHT22;64852;48.092;-1.640;2023-05-07T10:36:58;18.20;99.90
76120;DHT22;64852;48.092;-1.640;2023-05-07T10:39:23;18.20;99.90
76120;DHT22;64852;48.092;-1.640;2023-05-07T10:41:49;18.40;99.90
76120;DHT22;64852;48.092;-1.640;2023-05-07T10:44:30;18.30;99.90
76120;DHT22;64852;48.092;-1.640;2023-05-07T10:47:12;18.30;99.90
76120;DHT22;64852;48.092;-1.640;2023-05-07T10:54:38;18.20;99.90
76120;DHT22;64852;48.092;-1.640;2023-05-07T10:59:49;18.30;99.90
76120;DHT22;64852;48.092;-1.640;2023-05-07T11:02:17;18.50;99.90
76120;DHT22;64852;48.092;-1.640;2023-05-07T11:04:42;18.70;99.90
76120;DHT22;64852;48.092;-1.640;2023-05-07T11:15:08;19.30;99.90
76120;DHT22;64852;48.092;-1.640;2023-05-07T11:17:34;19.40;99.90
76120;DHT22;64852;48.092;-1.640;2023-05-07T11:20:01;19.40;99.90
76120;DHT22;64852;48.092;-1.640;2023-05-07T11:25:07;19.50;99.90
76120;DHT22;64852;48.092;-1.640;2023-05-07T11:27:33;19.40;99.90
76120;DHT22;64852;48.092;-1.640;2023-05-07T11:29:58;19.30;99.90
76120;DHT22;64852;48.092;-1.640;2023-05-07T11:34:53;19.30;99.90
76120;DHT22;64852;48.092;-1.640;2023-05-07T11:37:19;19.30;99.90
76120;DHT22;64852;48.092;-1.640;2023-05-07T11:39:45;19.40;99.90
76120;DHT22;64852;48.092;-1.640;2023-05-07T11:44:55;19.50;99.90
76120;DHT22;64852;48.092;-1.640;2023-05-07T11:47:21;19.40;99.90
76120;DHT22;64852;48.092;-1.640;2023-05-07T11:49:51;19.40;99.90
76120;DHT22;64852;48.092;-1.640;2023-05-07T11:52:17;19.40;99.90
76120;DHT22;64852;48.092;-1.640;2023-05-07T11:54:49;19.40;99.90
76120;DHT22;64852;48.092;-1.640;2023-05-07T11:57:15;19.40;99.90
76120;DHT22;64852;48.092;-1.640;2023-05-07T11:59:41;19.50;99.90
76120;DHT22;64852;48.092;-1.640;2023-05-07T12:02:06;19.30;99.90
76120;DHT22;64852;48.092;-1.640;2023-05-07T12:04:32;19.50;99.90
76120;DHT22;64852;48.092;-1.640;2023-05-07T12:06:58;19.10;99.90
76120;DHT22;64852;48.092;-1.640;2023-05-07T12:09:23;19.00;99.90
76120;DHT22;64852;48.092;-1.640;2023-05-07T12:11:49;19.00;99.90
76120;DHT22;64852;48.092;-1.640;2023-05-07T12:14:16;19.10;99.90
76120;DHT22;64852;48.092;-1.640;2023-05-07T12:16:42;18.90;99.90
76120;DHT22;64852;48.092;-1.640;2023-05-07T12:19:08;19.00;99.90
76120;DHT22;64852;48.092;-1.640;2023-05-07T12:21:37;19.00;99.90
76120;DHT22;64852;48.092;-1.640;2023-05-07T12:24:03;18.90;99.90
76120;DHT22;64852;48.092;-1.640;2023-05-07T12:26:29;18.90;99.90
76120;DHT22;64852;48.092;-1.640;2023-05-07T12:28:54;18.90;99.90
76120;DHT22;64852;48.092;-1.640;2023-05-07T12:31:22;18.80;99.90
76120;DHT22;64852;48.092;-1.640;2023-05-07T12:33:47;18.70;99.90
76120;DHT22;64852;48.092;-1.640;2023-05-07T12:36:13;18.70;99.90
76120;DHT22;64852;48.092;-1.640;2023-05-07T12:38:39;18.70;99.90
76120;DHT22;64852;48.092;-1.640;2023-05-07T12:41:06;18.80;99.90
76120;DHT22;64852;48.092;-1.640;2023-05-07T12:43:32;19.00;99.90
76120;DHT22;64852;48.092;-1.640;2023-05-07T12:46:00;19.20;99.90
76120;DHT22;64852;48.092;-1.640;2023-05-07T12:48:26;19.40;99.90
76120;DHT22;64852;48.092;-1.640;2023-05-07T12:50:54;19.50;99.90
76120;DHT22;64852;48.092;-1.640;2023-05-07T12:53:21;19.50;99.90
76120;DHT22;64852;48.092;-1.640;2023-05-07T12:55:47;19.70;99.90
76120;DHT22;64852;48.092;-1.640;2023-05-07T12:58:14;19.90;99.90
76120;DHT22;64852;48.092;-1.640;2023-05-07T13:00:40;20.20;99.90
76120;DHT22;64852;48.092;-1.640;2023-05-07T13:03:06;20.50;99.90
76120;DHT22;64852;48.092;-1.640;2023-05-07T13:05:31;20.80;99.90
76120;DHT22;64852;48.092;-1.640;2023-05-07T13:07:57;21.00;99.90
76120;DHT22;64852;48.092;-1.640;2023-05-07T13:10:23;21.70;99.90
76120;DHT22;64852;48.092;-1.640;2023-05-07T13:12:49;22.30;99.90
76120;DHT22;64852;48.092;-1.640;2023-05-07T13:15:15;22.90;99.90
76120;DHT22;64852;48.092;-1.640;2023-05-07T13:17:41;23.40;99.90
76120;DHT22;64852;48.092;-1.640;2023-05-07T13:20:06;23.50;99.90
76120;DHT22;64852;48.092;-1.640;2023-05-07T13:22:33;23.40;99.90
76120;DHT22;64852;48.092;-1.640;2023-05-07T13:24:58;23.00;99.90
76120;DHT22;64852;48.092;-1.640;2023-05-07T13:27:24;22.70;99.90
76120;DHT22;64852;48.092;-1.640;2023-05-07T13:29:50;22.40;99.90
76120;DHT22;64852;48.092;-1.640;2023-05-07T13:32:15;22.20;99.90
76120;DHT22;64852;48.092;-1.640;2023-05-07T13:34:41;22.40;99.90
76120;DHT22;64852;48.092;-1.640;2023-05-07T13:37:06;22.40;99.90
76120;DHT22;64852;48.092;-1.640;2023-05-07T13:39:33;22.30;99.90
76120;DHT22;64852;48.092;-1.640;2023-05-07T13:41:58;22.10;99.90
76120;DHT22;64852;48.092;-1.640;2023-05-07T13:44:24;22.10;99.90
76120;DHT22;64852;48.092;-1.640;2023-05-07T13:46:49;21.90;99.90
76120;DHT22;64852;48.092;-1.640;2023-05-07T13:49:15;21.80;99.90
76120;DHT22;64852;48.092;-1.640;2023-05-07T13:51:40;21.90;99.90
76120;DHT22;64852;48.092;-1.640;2023-05-07T13:54:06;21.70;99.90
76120;DHT22;64852;48.092;-1.640;2023-05-07T13:56:32;21.50;99.90
76120;DHT22;64852;48.092;-1.640;2023-05-07T13:58:58;21.00;99.90
76120;DHT22;64852;48.092;-1.640;2023-05-07T14:01:23;21.50;99.90
76120;DHT22;64852;48.092;-1.640;2023-05-07T14:03:49;21.50;99.90
76120;DHT22;64852;48.092;-1.640;2023-05-07T14:06:14;21.40;99.90
76120;DHT22;64852;48.092;-1.640;2023-05-07T14:08:40;21.70;99.90
76120;DHT22;64852;48.092;-1.640;2023-05-07T14:11:05;21.90;99.90
76120;DHT22;64852;48.092;-1.640;2023-05-07T14:13:34;21.80;99.90
76120;DHT22;64852;48.092;-1.640;2023-05-07T14:16:00;21.50;99.90
76120;DHT22;64852;48.092;-1.640;2023-05-07T14:18:26;21.40;99.90
76120;DHT22;64852;48.092;-1.640;2023-05-07T14:20:51;21.30;99.90
76120;DHT22;64852;48.092;-1.640;2023-05-07T14:23:17;21.50;99.90
76120;DHT22;64852;48.092;-1.640;2023-05-07T14:25:47;21.60;99.90
76120;DHT22;64852;48.092;-1.640;2023-05-07T14:28:13;21.60;99.90
76120;DHT22;64852;48.092;-1.640;2023-05-07T14:30:38;21.40;99.90
76120;DHT22;64852;48.092;-1.640;2023-05-07T14:33:04;21.30;99.90
76120;DHT22;64852;48.092;-1.640;2023-05-07T14:35:29;21.30;99.90
76120;DHT22;64852;48.092;-1.640;2023-05-07T14:37:54;21.20;99.90
76120;DHT22;64852;48.092;-1.640;2023-05-07T14:40:20;21.10;99.90
76120;DHT22;64852;48.092;-1.640;2023-05-07T14:42:46;21.20;99.90
76120;DHT22;64852;48.092;-1.640;2023-05-07T14:45:11;21.50;99.90
76120;DHT22;64852;48.092;-1.640;2023-05-07T14:47:38;21.80;99.90
76120;DHT22;64852;48.092;-1.640;2023-05-07T14:50:03;22.00;99.90
76120;DHT22;64852;48.092;-1.640;2023-05-07T14:52:29;22.00;99.90
76120;DHT22;64852;48.092;-1.640;2023-05-07T14:54:54;22.00;99.90
76120;DHT22;64852;48.092;-1.640;2023-05-07T14:57:20;22.20;99.90
76120;DHT22;64852;48.092;-1.640;2023-05-07T14:59:46;22.20;99.90
76120;DHT22;64852;48.092;-1.640;2023-05-07T15:02:12;22.60;99.90
76120;DHT22;64852;48.092;-1.640;2023-05-07T15:04:37;22.90;99.90
76120;DHT22;64852;48.092;-1.640;2023-05-07T15:07:04;23.40;99.90
76120;DHT22;64852;48.092;-1.640;2023-05-07T15:09:30;24.20;99.90
76120;DHT22;64852;48.092;-1.640;2023-05-07T15:11:55;24.80;99.90
76120;DHT22;64852;48.092;-1.640;2023-05-07T15:14:21;25.50;99.90
76120;DHT22;64852;48.092;-1.640;2023-05-07T15:16:47;26.70;99.90
76120;DHT22;64852;48.092;-1.640;2023-05-07T15:19:13;27.50;99.90
76120;DHT22;64852;48.092;-1.640;2023-05-07T15:21:40;27.80;99.00
76120;DHT22;64852;48.092;-1.640;2023-05-07T15:24:05;27.40;99.90
76120;DHT22;64852;48.092;-1.640;2023-05-07T15:26:31;27.40;99.90
76120;DHT22;64852;48.092;-1.640;2023-05-07T15:28:56;28.10;99.90
76120;DHT22;64852;48.092;-1.640;2023-05-07T15:31:23;28.90;99.90
76120;DHT22;64852;48.092;-1.640;2023-05-07T15:33:48;29.70;99.90